Abilene, TX

12:10 PM CST on November 22, 2014 (GMT -0600)
Abilene Regional | Change Station
CLOSE
Current Station
Airport
Location: Abilene,
Elevation: 1788 ft
Nearby Weather Stations
Active Advisory: Special Statement

Elev 1788 ft 32.41 °N, 99.68 °W | Updated 18 minutes ago

Light Rain
Light Rain
65 °F
Feels Like 65 °F
N
12
Wind Variable Wind from SSE

Today
High -- | Low -- °F
--% Chance of Precip.
Yesterday
High -- | Low -- °F
Precip. -- in
7:14 AM 5:35 PM
New Moon, 0% visible
Pressure 29.85 in
Visibility 10.0 miles
Clouds Mostly Cloudy 1900 ft
Overcast 2400 ft
Dew Point 61 °F
Humidity 87%
Rainfall 0.00 in
Snow Depth Not available.
UV 1 out of 12
Pollen .60 out of 12
Air Quality Not available.
Flu Activity Not available.
METAR KABI 221752Z 15010KT 10SM -RA BKN019 OVC024 18/16 A2989 RMK AO2 RAB25 SLP107 P0000 60000 T01830161 10200 20167 58025

More Conditions Fewer Conditions

Pressure 29.85 in
Visibility 10.0 miles
Clouds Mostly Cloudy 1900 ft
Overcast 2400 ft
Dew Point 61 °F
Humidity 87%
Rainfall 0.00 in
Snow Depth Not available.
UV 1 out of 12
Pollen .60 out of 12
Air Quality Not available.
Flu Activity Not available.
METAR KABI 221752Z 15010KT 10SM -RA BKN019 OVC024 18/16 A2989 RMK AO2 RAB25 SLP107 P0000 60000 T01830161 10200 20167 58025

More Conditions Fewer Conditions

Nowcast | as of 12:02 PM CST on November 22, 2014

Scattered to numerous showers and thunderstorms...mainly along and north of a Sterling City...San Angelo...Brady...Mason line at noon will move north a 25 mph. Locally heavy rainfall up to an inch is possible from just north of San Angelo to Winters. Most areas will see 1/4 inch or less.

×

10-Day Weather Forecast

Almanac

Astronomy

Nov. 22, 2014 Rise Set
Actual Time
Civil Twilight
Nautical Twilight
Astronomical Twilight
Moon
Length of Visible Light
Length of Day
Tomorrow will be .
, % of the Moon is Illuminated

Today's Extremes

State Highs State Lows

Community

WunderPhotos

Upload Photos

1,772,873 photos uploaded!

WunderBlogs® & News

Nearby

Air Quality

  Air Quality AQ Index Pollutant
Not available.

Snow Depth

Station Depth Elevation

Earthquake Activity

City Distance Mag. Time & Date
Minimum magnitude displayed is 2.5.

Coastal Water Temperatures

Place Temperature

Nearby Weather Stations